Terminal Aerodrome Forecast
Issued by NWS Blacksburg, VA

Home | Current Version | Previous Version | Text Only | Print | Product List | Glossary On
Versions: 1 2 3 4 5 6 7 8 9 10 11 12 13 14 15 16 17 18 19 20 21 22 23 24 25 26 27 28
000
FTUS41 KRNK 021742
TAFLYH
TAF
KLYH 021742Z 0218/0318 31006KT P6SM VCSH BKN035
     FM022000 29005KT P6SM -SHRA VCTS OVC040CB
     FM022300 32004KT P6SM VCSH OVC030
     FM030600 00000KT 4SM -SHRA BR OVC020
     FM031000 00000KT 5SM -SHRA BR OVC009
     FM031500 07005KT P6SM VCSH OVC015=

USA.gov is the U.S. government's official web portal to all federal, state and local government web resources and services.